Ironwood, Michigan
Current Conditions -  °F | °C
As of 10:15 PM on Wednesday 26 Nov 2014 (Local Time) from KIWD Reporting Station
Overcast Overcast  
Wind Chill:   Ceiling: 1600
Heat Index: 18°   Visibility: 1.7mi
Dew Point: 16°   Wind: 8mph
Humidity: 93%   Direction: 360°N
Pressure: 30.22"   Gusts: 16mph
Location:  46.46°N, 90.16°W
Report Text: KIWD 270415Z AUTO 36007G14KT 1 3/4SM BKN016 OVC025 M08/M09 A3022 RMK AO1
Loading
Personal Weather Stations






























Interactive Weather Map New forecast layout! Learn more

10-Day Weather Forecast

Advertisements
Track Severe Weather on mobile